Search for airport 
image banner adimage banner adimage banner ad
image banner ad

KMPI - Mariposa-Yosemite

Located in Mariposa, United States

ICAO - MPI, IATA - RMY

Data provided by Airmate  

General information

Coordinates: N37°30'39" W120°2'22"
Elevation is 2254 feet MSL.
Magnetic variation is 15° East
View others Airports in California

Operational data

Special qualification required
Current time UTC:
Current local time:
Weather at : KMCE - Merced Rgnl/Macready Field ( 49 km )
METAR: KMCE 240853Z AUTO 33007KT 10SM CLR 18/13 A2992 RMK AO2 SLP132 T01780128 50005
TAF: KMCE 240520Z 2406/2506 33007KT P6SM SKC TEMPO 2406/2410 33012KT
View NOTAMs / SUP AIP / TFR affecting this airport [VIEW]
Communications frequencies: [VIEW]

Runways:

RWY identifierQFULength (ft)Width (ft)SurfaceLDA (ft)
08100°330560ASPH
26280°330560ASPH

Airport contact information

Address: Mariposa United States

Other aviation service providers

Flight schools

Airborrn Aviation Services, Llc

Airborrn Aviation Services, Llc

Satellite view of KMPI